Time;durP1;ratioP1;P1;durP2;ratioP2;P2;SDS_P1;SDS_P2;PMS_P1;PMS_P2;Temp;Humidity;BMP_temperature;BMP_pressure;BME280_temperature;BME280_humidity;BME280_pressure;Samples;Min_cycle;Max_cycle;Signal;HPM_P1;HPM_P2
2022/10/25 00:01:24;;;;;;;1999.90;999.90;;;15.70;99.90;;;;;;5055083;28;20410;-65
2022/10/25 00:03:50;;;;;;;1999.90;999.90;;;15.80;99.90;;;;;;5054503;28;20495;-65
2022/10/25 00:06:15;;;;;;;1999.90;999.90;;;15.70;99.90;;;;;;5054348;28;20499;-65
2022/10/25 00:08:41;;;;;;;1999.90;999.90;;;15.70;99.90;;;;;;5054260;28;20413;-65
2022/10/25 00:11:12;;;;;;;1999.90;999.90;;;15.70;99.90;;;;;;5054553;28;20420;-65
2022/10/25 00:13:37;;;;;;;1999.90;999.90;;;15.60;99.90;;;;;;5054428;28;20179;-65
2022/10/25 00:16:03;;;;;;;1999.90;999.90;;;15.70;99.90;;;;;;5054273;28;20890;-65
2022/10/25 00:18:29;;;;;;;1999.90;999.90;;;15.70;99.90;;;;;;5054106;28;20249;-65
2022/10/25 00:20:54;;;;;;;1999.90;999.90;;;15.60;99.90;;;;;;5054382;28;20427;-65
2022/10/25 00:23:20;;;;;;;1999.90;999.90;;;15.60;99.90;;;;;;5054231;28;20172;-66
2022/10/25 00:25:45;;;;;;;1999.90;999.90;;;15.60;99.90;;;;;;5054172;28;20704;-65
2022/10/25 00:28:11;;;;;;;1999.90;999.90;;;15.60;99.90;;;;;;5053699;28;20201;-65
2022/10/25 00:30:36;;;;;;;1999.90;999.90;;;15.60;99.90;;;;;;5054240;28;20179;-65
2022/10/25 00:33:02;;;;;;;1999.90;999.90;;;15.60;99.90;;;;;;5054068;28;20166;-65
2022/10/25 00:35:28;;;;;;;1999.90;999.90;;;15.60;99.90;;;;;;5053964;28;20173;-65
2022/10/25 00:37:53;;;;;;;1999.90;999.90;;;15.60;99.90;;;;;;5053640;28;20165;-65
2022/10/25 00:40:19;;;;;;;1999.90;999.90;;;15.60;99.90;;;;;;5053922;28;20429;-65
2022/10/25 00:42:45;;;;;;;1999.90;999.90;;;15.60;99.90;;;;;;5053978;28;20188;-65
2022/10/25 00:45:26;;;;;;;1999.90;999.90;;;15.60;99.90;;;;;;5053740;28;20193;-66
2022/10/25 00:48:03;;;;;;;1999.90;999.90;;;15.50;99.90;;;;;;5053706;28;20681;-65
2022/10/25 00:50:47;;;;;;;1999.90;999.90;;;15.50;99.90;;;;;;5054130;28;20503;-66
2022/10/25 00:53:17;;;;;;;1999.90;999.90;;;15.50;99.90;;;;;;5054220;28;20403;-65
2022/10/25 00:55:47;;;;;;;1999.90;999.90;;;15.50;99.90;;;;;;5053958;28;20406;-66
2022/10/25 00:58:18;;;;;;;1999.90;999.90;;;15.50;99.90;;;;;;5053398;28;20453;-66
2022/10/25 01:00:47;;;;;;;1999.90;999.90;;;15.60;99.90;;;;;;5053786;28;20552;-66
2022/10/25 01:03:15;;;;;;;1999.90;999.90;;;15.50;99.90;;;;;;5053495;28;20412;-66
2022/10/25 01:05:42;;;;;;;1999.90;999.90;;;15.60;99.90;;;;;;5053661;28;20414;-66
2022/10/25 01:08:07;;;;;;;1999.90;999.90;;;15.60;99.90;;;;;;5053295;28;20457;-66
2022/10/25 01:10:33;;;;;;;1999.90;999.90;;;15.60;99.90;;;;;;5053572;28;20408;-65
2022/10/25 01:13:03;;;;;;;1999.90;999.90;;;15.50;99.90;;;;;;5053581;28;20175;-65
2022/10/25 01:15:38;;;;;;;1999.90;999.90;;;15.50;99.90;;;;;;5053518;28;20183;-66
2022/10/25 01:18:09;;;;;;;1999.90;999.90;;;15.50;99.90;;;;;;5053326;28;20438;-66
2022/10/25 01:21:19;;;;;;;1999.90;999.90;;;15.40;99.90;;;;;;5053477;28;20506;-66
2022/10/25 01:24:04;;;;;;;1999.90;999.90;;;15.40;99.90;;;;;;5037051;28;20429;-65
2022/10/25 01:26:49;;;;;;;1999.90;999.90;;;15.50;99.90;;;;;;5053238;28;20496;-66
2022/10/25 01:29:29;;;;;;;1999.90;999.90;;;15.40;99.90;;;;;;5053116;28;20427;-65
2022/10/25 01:32:05;;;;;;;1999.90;999.90;;;15.40;99.90;;;;;;5053251;28;20471;-66
2022/10/25 01:34:42;;;;;;;1999.90;999.90;;;15.30;99.90;;;;;;5053187;28;20435;-65
2022/10/25 01:37:15;;;;;;;1999.90;999.90;;;15.30;99.90;;;;;;5052927;28;20896;-66
2022/10/25 01:39:50;;;;;;;1999.90;999.90;;;15.30;99.90;;;;;;5052857;28;20804;-65
2022/10/25 01:42:31;;;;;;;1999.90;999.90;;;15.30;99.90;;;;;;5053006;28;20422;-66
2022/10/25 01:45:05;;;;;;;1999.90;999.90;;;15.30;99.90;;;;;;5052638;28;20423;-65
2022/10/25 01:47:54;;;;;;;1999.90;999.90;;;15.20;99.90;;;;;;5052294;28;20459;-65
2022/10/25 01:50:32;;;;;;;1999.90;999.90;;;15.20;99.90;;;;;;5052567;28;20417;-65
2022/10/25 01:52:57;;;;;;;1999.90;999.90;;;15.20;99.90;;;;;;5052691;28;20409;-65
2022/10/25 01:55:31;;;;;;;1999.90;999.90;;;15.20;99.90;;;;;;5052587;28;20889;-65
2022/10/25 01:58:11;;;;;;;1999.90;999.90;;;15.20;99.90;;;;;;5052520;28;20169;-66
2022/10/25 02:00:59;;;;;;;1999.90;999.90;;;15.20;99.90;;;;;;5052703;28;21028;-65
2022/10/25 02:03:47;;;;;;;1999.90;999.90;;;15.20;99.90;;;;;;5052765;28;20413;-65
2022/10/25 02:06:19;;;;;;;1999.90;999.90;;;15.10;99.90;;;;;;5052440;28;20438;-65
2022/10/25 02:08:54;;;;;;;1999.90;999.90;;;15.10;99.90;;;;;;5052030;28;20438;-65
2022/10/25 02:11:31;;;;;;;1999.90;999.90;;;15.10;99.90;;;;;;5052199;28;20402;-65
2022/10/25 02:14:15;;;;;;;1999.90;999.90;;;15.10;99.90;;;;;;5052322;28;20495;-65
2022/10/25 02:16:51;;;;;;;1999.90;999.90;;;15.20;99.90;;;;;;5051453;28;20495;-65
2022/10/25 02:19:22;;;;;;;1999.90;999.90;;;15.20;99.90;;;;;;5052173;28;20423;-66
2022/10/25 02:21:50;;;;;;;1999.90;999.90;;;15.20;99.90;;;;;;5052271;28;20413;-66
2022/10/25 02:24:20;;;;;;;1999.90;999.90;;;15.20;99.90;;;;;;5052128;28;20411;-66
2022/10/25 02:26:47;;;;;;;1999.90;999.90;;;15.20;99.90;;;;;;5051726;28;20447;-65
2022/10/25 02:29:14;;;;;;;1999.90;999.90;;;15.20;99.90;;;;;;5052057;28;20511;-65
2022/10/25 02:31:40;;;;;;;1999.90;999.90;;;15.20;99.90;;;;;;5051954;28;20926;-66
2022/10/25 02:34:06;;;;;;;1999.90;999.90;;;15.20;99.90;;;;;;5052041;28;20880;-66
2022/10/25 02:36:32;;;;;;;1999.90;999.90;;;15.20;99.90;;;;;;5051922;28;20406;-66
2022/10/25 02:38:58;;;;;;;1999.90;999.90;;;15.20;99.90;;;;;;5051606;28;20188;-66
2022/10/25 02:41:24;;;;;;;1999.90;999.90;;;15.20;99.90;;;;;;5051922;28;20631;-66
2022/10/25 02:43:50;;;;;;;1999.90;999.90;;;15.20;99.90;;;;;;5051927;28;20406;-65
2022/10/25 02:46:22;;;;;;;1999.90;999.90;;;15.30;99.90;;;;;;5051809;28;20167;-65
2022/10/25 02:48:48;;;;;;;1999.90;999.90;;;15.30;99.90;;;;;;5051622;28;20215;-65
2022/10/25 02:51:14;;;;;;;1999.90;999.90;;;15.40;99.90;;;;;;5051798;28;20404;-66
2022/10/25 02:53:40;;;;;;;1999.90;999.90;;;15.40;99.90;;;;;;5051730;28;20455;-66
2022/10/25 02:56:20;;;;;;;1999.90;999.90;;;15.50;99.90;;;;;;5051658;28;20410;-66
2022/10/25 02:58:48;;;;;;;1999.90;999.90;;;15.40;99.90;;;;;;5051366;28;20829;-65
2022/10/25 03:01:15;;;;;;;1999.90;999.90;;;15.40;99.90;;;;;;5051607;28;20424;-66
2022/10/25 03:03:42;;;;;;;1999.90;999.90;;;15.50;99.90;;;;;;5051687;28;20497;-66
2022/10/25 03:06:09;;;;;;;1999.90;999.90;;;15.50;99.90;;;;;;5051878;28;20409;-65
2022/10/25 03:08:36;;;;;;;1999.90;999.90;;;15.50;99.90;;;;;;5051317;28;20464;-65
2022/10/25 03:11:02;;;;;;;1999.90;999.90;;;15.50;99.90;;;;;;5051831;28;20415;-66
2022/10/25 03:13:28;;;;;;;1999.90;999.90;;;15.60;99.90;;;;;;5051723;28;20486;-66
2022/10/25 03:15:54;;;;;;;1999.90;999.90;;;15.60;99.90;;;;;;5051528;28;20537;-66
2022/10/25 03:18:21;;;;;;;1999.90;999.90;;;15.50;99.90;;;;;;5051324;28;20204;-66
2022/10/25 03:20:47;;;;;;;1999.90;999.90;;;15.50;99.90;;;;;;5051641;28;20181;-66
2022/10/25 03:23:13;;;;;;;1999.90;999.90;;;15.30;99.90;;;;;;5051472;28;20902;-66
2022/10/25 03:25:38;;;;;;;1999.90;999.90;;;15.20;99.90;;;;;;5051470;28;20408;-65
2022/10/25 03:28:04;;;;;;;1999.90;999.90;;;15.20;99.90;;;;;;5054369;28;20449;-65
2022/10/25 03:30:30;;;;;;;1999.90;999.90;;;15.20;99.90;;;;;;5054990;28;20197;-65
2022/10/25 03:32:56;;;;;;;1999.90;999.90;;;15.20;99.90;;;;;;5055277;28;20643;-66
2022/10/25 03:35:23;;;;;;;1999.90;999.90;;;15.20;99.90;;;;;;5055149;28;20958;-66
2022/10/25 03:37:48;;;;;;;1999.90;999.90;;;15.20;99.90;;;;;;5054867;28;20431;-66
2022/10/25 03:40:14;;;;;;;1999.90;999.90;;;15.10;99.90;;;;;;5055070;28;21144;-66
2022/10/25 03:42:40;;;;;;;1999.90;999.90;;;14.90;99.90;;;;;;5055085;28;20194;-65
2022/10/25 03:45:06;;;;;;;1999.90;999.90;;;14.70;99.90;;;;;;5054986;28;20776;-65
2022/10/25 03:47:32;;;;;;;1999.90;999.90;;;14.50;99.90;;;;;;5054676;28;20451;-65
2022/10/25 03:49:57;;;;;;;1999.90;999.90;;;14.40;99.90;;;;;;5055011;28;20462;-65
2022/10/25 03:52:23;;;;;;;1999.90;999.90;;;14.20;99.90;;;;;;5055028;28;20193;-65
2022/10/25 03:54:49;;;;;;;1999.90;999.90;;;14.10;99.90;;;;;;5054954;28;20197;-65
2022/10/25 03:57:14;;;;;;;1999.90;999.90;;;13.90;99.90;;;;;;5054713;28;20224;-65
2022/10/25 03:59:40;;;;;;;1999.90;999.90;;;13.90;99.90;;;;;;5054739;28;20206;-65
2022/10/25 04:02:05;;;;;;;1999.90;999.90;;;13.90;99.90;;;;;;5054678;28;20200;-65
2022/10/25 04:04:31;;;;;;;1999.90;999.90;;;13.90;99.90;;;;;;5054649;28;20176;-65
2022/10/25 04:06:56;;;;;;;1999.90;999.90;;;13.90;99.90;;;;;;5054288;28;20194;-65
2022/10/25 04:09:22;;;;;;;1999.90;999.90;;;13.90;99.90;;;;;;5054365;28;20201;-65
2022/10/25 04:11:48;;;;;;;1999.90;999.90;;;13.90;99.90;;;;;;5054447;28;20612;-65
2022/10/25 04:14:13;;;;;;;1999.90;999.90;;;13.90;99.90;;;;;;5054512;28;20168;-65
2022/10/25 04:16:39;;;;;;;1999.90;999.90;;;13.90;99.90;;;;;;5054199;28;20175;-65
2022/10/25 04:19:05;;;;;;;1999.90;999.90;;;14.00;99.90;;;;;;5054167;28;20277;-65
2022/10/25 04:21:30;;;;;;;1999.90;999.90;;;14.00;99.90;;;;;;5054354;28;20181;-65
2022/10/25 04:23:56;;;;;;;1999.90;999.90;;;14.00;99.90;;;;;;5054233;28;20594;-65
2022/10/25 04:26:21;;;;;;;1999.90;999.90;;;14.00;99.90;;;;;;5054040;28;20184;-65
2022/10/25 04:28:52;;;;;;;1999.90;999.90;;;14.00;99.90;;;;;;5054068;28;20213;-65
2022/10/25 04:31:18;;;;;;;1999.90;999.90;;;14.10;99.90;;;;;;5054130;28;20178;-65
2022/10/25 04:33:47;;;;;;;1999.90;999.90;;;14.10;99.90;;;;;;5054028;28;20404;-65
2022/10/25 04:36:13;;;;;;;1999.90;999.90;;;14.10;99.90;;;;;;5053879;28;20416;-65
2022/10/25 04:38:38;;;;;;;1999.90;999.90;;;14.10;99.90;;;;;;5053051;28;20429;-65
2022/10/25 04:41:04;;;;;;;1999.90;999.90;;;14.10;99.90;;;;;;5053954;28;20180;-65
2022/10/25 04:43:30;;;;;;;1999.90;999.90;;;14.10;99.90;;;;;;5053963;28;20578;-65
2022/10/25 04:45:59;;;;;;;1999.90;999.90;;;14.10;99.90;;;;;;5053807;28;20281;-65
2022/10/25 04:48:25;;;;;;;1999.90;999.90;;;14.10;99.90;;;;;;5053556;28;20211;-65
2022/10/25 04:50:50;;;;;;;1999.90;999.90;;;14.20;99.90;;;;;;5053811;28;20504;-65
2022/10/25 04:53:16;;;;;;;1999.90;999.90;;;14.20;99.90;;;;;;5053692;28;20164;-65
2022/10/25 04:55:42;;;;;;;1999.90;999.90;;;14.20;99.90;;;;;;5053722;28;20170;-65
2022/10/25 04:58:07;;;;;;;1999.90;999.90;;;14.20;99.90;;;;;;5053414;28;20180;-65
2022/10/25 05:00:33;;;;;;;1999.90;999.90;;;14.20;99.90;;;;;;5053594;28;20585;-64
2022/10/25 05:02:58;;;;;;;1999.90;999.90;;;14.30;99.90;;;;;;5053617;28;20176;-65
2022/10/25 05:05:24;;;;;;;1999.90;999.90;;;14.30;99.90;;;;;;5053400;28;20174;-65
2022/10/25 05:07:50;;;;;;;1999.90;999.90;;;14.30;99.90;;;;;;5053039;28;20202;-65
2022/10/25 05:10:16;;;;;;;1999.90;999.90;;;14.30;99.90;;;;;;5053319;28;20437;-65
2022/10/25 05:12:42;;;;;;;1999.90;999.90;;;14.40;99.90;;;;;;5053322;28;20465;-64
2022/10/25 05:15:08;;;;;;;1999.90;999.90;;;14.40;99.90;;;;;;5053266;28;20405;-65
2022/10/25 05:17:34;;;;;;;1999.90;999.90;;;14.40;99.90;;;;;;5053104;28;20180;-65
2022/10/25 05:19:59;;;;;;;1999.90;999.90;;;14.40;99.90;;;;;;5053194;28;20515;-65
2022/10/25 05:22:25;;;;;;;1999.90;999.90;;;14.30;99.90;;;;;;5053065;28;20179;-65
2022/10/25 05:24:51;;;;;;;1999.90;999.90;;;14.40;99.90;;;;;;5053148;28;20257;-64
2022/10/25 05:27:17;;;;;;;1999.90;999.90;;;14.30;99.90;;;;;;5053138;28;20547;-64
2022/10/25 05:29:43;;;;;;;1999.90;999.90;;;14.30;99.90;;;;;;5052950;28;20270;-65
2022/10/25 05:32:08;;;;;;;1999.90;999.90;;;14.40;99.90;;;;;;5052942;28;20435;-64
2022/10/25 05:34:34;;;;;;;1999.90;999.90;;;14.30;99.90;;;;;;5052927;28;20201;-64
2022/10/25 05:36:59;;;;;;;1999.90;999.90;;;14.30;99.90;;;;;;5052585;28;20177;-65
2022/10/25 05:39:25;;;;;;;1999.90;999.90;;;14.30;99.90;;;;;;5052605;28;20199;-65
2022/10/25 05:41:51;;;;;;;1999.90;999.90;;;14.30;99.90;;;;;;5052733;28;20182;-65
2022/10/25 05:44:17;;;;;;;1999.90;999.90;;;14.30;99.90;;;;;;5052746;28;20203;-65
2022/10/25 05:46:43;;;;;;;1999.90;999.90;;;14.40;99.90;;;;;;5052399;28;20414;-64
2022/10/25 05:49:10;;;;;;;1999.90;999.90;;;14.40;99.90;;;;;;5052574;28;20194;-65
2022/10/25 05:51:36;;;;;;;1999.90;999.90;;;14.40;99.90;;;;;;5051643;28;20407;-65
2022/10/25 05:54:08;;;;;;;1999.90;999.90;;;14.40;99.90;;;;;;5052507;28;20816;-64
2022/10/25 05:56:34;;;;;;;1999.90;999.90;;;14.40;99.90;;;;;;5052477;28;20402;-65
2022/10/25 05:59:11;;;;;;;1999.90;999.90;;;14.40;99.90;;;;;;5052149;28;20963;-63
2022/10/25 06:01:47;;;;;;;1999.90;999.90;;;14.40;99.90;;;;;;5052914;28;20493;-64
2022/10/25 06:04:14;;;;;;;1999.90;999.90;;;14.40;99.90;;;;;;5052332;28;20455;-65
2022/10/25 06:06:41;;;;;;;1999.90;999.90;;;14.50;99.90;;;;;;5052048;28;20488;-64
2022/10/25 06:09:07;;;;;;;1999.90;999.90;;;14.50;99.90;;;;;;5052135;28;20474;-65
2022/10/25 06:11:33;;;;;;;1999.90;999.90;;;14.60;99.90;;;;;;5052348;28;20413;-65
2022/10/25 06:13:59;;;;;;;1999.90;999.90;;;14.60;99.90;;;;;;5052247;28;20910;-65
2022/10/25 06:16:25;;;;;;;1999.90;999.90;;;14.60;99.90;;;;;;5052105;28;20406;-64
2022/10/25 06:18:52;;;;;;;1999.90;999.90;;;14.60;99.90;;;;;;5051955;28;20286;-64
2022/10/25 06:21:26;;;;;;;1999.90;999.90;;;14.60;99.90;;;;;;5052163;28;20658;-64
2022/10/25 06:23:52;;;;;;;1999.90;999.90;;;14.50;99.90;;;;;;5052174;28;20447;-64
2022/10/25 06:26:20;;;;;;;1999.90;999.90;;;14.60;99.90;;;;;;5052090;28;20768;-65
2022/10/25 06:28:46;;;;;;;1999.90;999.90;;;14.50;99.90;;;;;;5051670;28;20836;-65
2022/10/25 06:31:15;;;;;;;1999.90;999.90;;;14.50;99.90;;;;;;5051864;28;20445;-65
2022/10/25 06:33:41;;;;;;;1999.90;999.90;;;14.50;99.90;;;;;;5051885;28;20895;-65
2022/10/25 06:36:15;;;;;;;1999.90;999.90;;;14.50;99.90;;;;;;5051842;28;20404;-65
2022/10/25 06:38:41;;;;;;;1999.90;999.90;;;14.50;99.90;;;;;;5051781;28;20453;-65
2022/10/25 06:41:17;;;;;;;1999.90;999.90;;;14.50;99.90;;;;;;5051926;28;20489;-64
2022/10/25 06:43:42;;;;;;;1999.90;999.90;;;14.50;99.90;;;;;;5051966;28;20449;-65
2022/10/25 06:46:30;;;;;;;1999.90;999.90;;;14.50;99.90;;;;;;5051748;28;20421;-65
2022/10/25 06:48:57;;;;;;;1999.90;999.90;;;14.50;99.90;;;;;;5051523;28;20678;-65
2022/10/25 06:51:24;;;;;;;1999.90;999.90;;;14.60;99.90;;;;;;5051787;28;20399;-65
2022/10/25 06:53:57;;;;;;;1999.90;999.90;;;14.60;99.90;;;;;;5051811;28;20406;-65
2022/10/25 06:56:23;;;;;;;1999.90;999.90;;;14.60;99.90;;;;;;5051661;28;20899;-65
2022/10/25 06:58:49;;;;;;;1999.90;999.90;;;14.60;99.90;;;;;;5051367;28;20437;-65
2022/10/25 07:01:16;;;;;;;1999.90;999.90;;;14.60;99.90;;;;;;5052184;28;20430;-65
2022/10/25 07:03:42;;;;;;;1999.90;999.90;;;14.60;99.90;;;;;;5055581;28;20741;-65
2022/10/25 07:06:09;;;;;;;1999.90;999.90;;;14.60;99.90;;;;;;5055582;28;20404;-64
2022/10/25 07:08:35;;;;;;;1999.90;999.90;;;14.60;99.90;;;;;;5055287;28;20199;-65
2022/10/25 07:11:02;;;;;;;1999.90;999.90;;;14.60;99.90;;;;;;5055529;28;20450;-65
2022/10/25 07:13:30;;;;;;;1999.90;999.90;;;14.60;99.90;;;;;;5055572;28;20478;-64
2022/10/25 07:16:03;;;;;;;1999.90;999.90;;;14.60;99.90;;;;;;5055339;28;20798;-64
2022/10/25 07:18:30;;;;;;;1999.90;999.90;;;14.60;99.90;;;;;;5055280;28;20428;-64
2022/10/25 07:21:00;;;;;;;1999.90;999.90;;;14.60;99.90;;;;;;5055323;28;20423;-65
2022/10/25 07:23:27;;;;;;;1999.90;999.90;;;14.60;99.90;;;;;;5055374;28;20411;-64
2022/10/25 07:25:52;;;;;;;1999.90;999.90;;;14.70;99.90;;;;;;5055303;28;20498;-64
2022/10/25 07:28:18;;;;;;;1999.90;999.90;;;14.80;99.90;;;;;;5055002;28;20543;-65
2022/10/25 07:30:45;;;;;;;1999.90;999.90;;;14.80;99.90;;;;;;5055257;28;20298;-65
2022/10/25 07:33:15;;;;;;;1999.90;999.90;;;14.80;99.90;;;;;;5055249;28;20173;-65
2022/10/25 07:35:49;;;;;;;1999.90;999.90;;;14.90;99.90;;;;;;5055167;28;20410;-65
2022/10/25 07:38:14;;;;;;;1999.90;999.90;;;14.90;99.90;;;;;;5054970;28;20395;-65
2022/10/25 07:40:41;;;;;;;1999.90;999.90;;;15.10;99.90;;;;;;5055084;28;20416;-65
2022/10/25 07:43:07;;;;;;;1999.90;999.90;;;15.20;99.90;;;;;;5055052;28;20477;-65
2022/10/25 07:45:33;;;;;;;1999.90;999.90;;;15.20;99.90;;;;;;5070417;28;20456;-65
2022/10/25 07:47:59;;;;;;;1999.90;999.90;;;15.30;99.90;;;;;;5054546;28;20487;-64
2022/10/25 07:50:24;;;;;;;1999.90;999.90;;;15.30;99.90;;;;;;5054828;28;20197;-65
2022/10/25 07:52:50;;;;;;;1999.90;999.90;;;15.40;99.90;;;;;;5054813;28;20407;-65
2022/10/25 07:55:15;;;;;;;1999.90;999.90;;;15.50;99.90;;;;;;5054842;28;20164;-64
2022/10/25 07:57:41;;;;;;;1999.90;999.90;;;15.50;99.90;;;;;;5054459;28;20180;-64
2022/10/25 08:00:08;;;;;;;1999.90;999.90;;;15.50;99.90;;;;;;5054627;28;20584;-65
2022/10/25 08:02:34;;;;;;;1999.90;999.90;;;15.60;99.90;;;;;;5054696;28;20168;-65
2022/10/25 08:05:00;;;;;;;1999.90;999.90;;;15.60;99.90;;;;;;5054610;28;20424;-64
2022/10/25 08:07:26;;;;;;;1999.90;999.90;;;15.60;99.90;;;;;;5054240;28;20214;-65
2022/10/25 08:09:52;;;;;;;1999.90;999.90;;;15.60;99.90;;;;;;5054432;28;20414;-65
2022/10/25 08:12:17;;;;;;;1999.90;999.90;;;15.70;99.90;;;;;;5054463;28;20416;-64
2022/10/25 08:14:43;;;;;;;1999.90;999.90;;;15.60;99.90;;;;;;5053486;28;20224;-64
2022/10/25 08:17:09;;;;;;;1999.90;999.90;;;15.60;99.90;;;;;;5054151;28;20203;-64
2022/10/25 08:19:34;;;;;;;1999.90;999.90;;;15.60;99.90;;;;;;5054243;28;20186;-64
2022/10/25 08:22:00;;;;;;;1999.90;999.90;;;15.70;99.90;;;;;;5054430;28;20763;-64
2022/10/25 08:24:25;;;;;;;1999.90;999.90;;;15.70;99.90;;;;;;5054328;28;20173;-64
2022/10/25 08:26:51;;;;;;;1999.90;999.90;;;15.70;99.90;;;;;;5053944;28;20286;-64
2022/10/25 08:29:16;;;;;;;1999.90;999.90;;;15.60;99.90;;;;;;5054093;28;20317;-64
2022/10/25 08:31:43;;;;;;;1999.90;999.90;;;15.60;99.90;;;;;;5054007;28;20622;-65
2022/10/25 08:34:09;;;;;;;1999.90;999.90;;;15.70;99.90;;;;;;5054184;28;20542;-65
2022/10/25 08:36:34;;;;;;;1999.90;999.90;;;15.80;99.90;;;;;;5053833;28;20419;-65
2022/10/25 08:39:00;;;;;;;1999.90;999.90;;;15.90;99.90;;;;;;5053724;28;20707;-64
2022/10/25 08:41:55;;;;;;;1999.90;999.90;;;16.00;99.90;;;;;;5054041;28;20511;-65
2022/10/25 08:44:48;;;;;;;1999.90;999.90;;;16.00;99.90;;;;;;5053696;28;20605;-65
2022/10/25 08:47:34;;;;;;;1999.90;999.90;;;16.10;99.90;;;;;;5053324;28;20453;-64
2022/10/25 08:50:06;;;;;;;1999.90;999.90;;;16.10;99.90;;;;;;5053934;28;20567;-65
2022/10/25 08:52:42;;;;;;;1999.90;999.90;;;16.10;99.90;;;;;;5053726;28;20910;-65
2022/10/25 08:55:18;;;;;;;1999.90;999.90;;;16.10;99.90;;;;;;5053579;28;20486;-64
2022/10/25 08:57:47;;;;;;;1999.90;999.90;;;16.20;99.90;;;;;;5053400;28;20406;-64
2022/10/25 09:00:21;;;;;;;1999.90;999.90;;;16.20;99.90;;;;;;5053554;28;20448;-64
2022/10/25 09:02:53;;;;;;;1999.90;999.90;;;16.10;99.90;;;;;;5053462;28;20408;-64
2022/10/25 09:05:37;;;;;;;1999.90;999.90;;;16.10;99.90;;;;;;5053560;28;20419;-64
2022/10/25 09:08:43;;;;;;;1999.90;999.90;;;16.10;99.90;;;;;;5053220;28;20453;-64
2022/10/25 09:12:03;;;;;;;1999.90;999.90;;;16.10;99.90;;;;;;5046925;28;20417;-64
2022/10/25 09:14:46;;;;;;;1999.90;999.90;;;16.00;99.90;;;;;;4991598;28;20526;-65
2022/10/25 09:17:34;;;;;;;1999.90;999.90;;;16.00;99.90;;;;;;5028849;28;20448;-65
2022/10/25 09:20:21;;;;;;;1999.90;999.90;;;15.90;99.90;;;;;;5032658;28;20419;-65
2022/10/25 09:22:55;;;;;;;1999.90;999.90;;;15.80;99.90;;;;;;5032603;28;20509;-65
2022/10/25 09:25:42;;;;;;;1999.90;999.90;;;15.70;99.90;;;;;;5032490;28;20404;-64
2022/10/25 09:28:20;;;;;;;1999.90;999.90;;;15.70;99.90;;;;;;5032590;28;20787;-67
2022/10/25 09:30:49;;;;;;;1999.90;999.90;;;15.70;99.90;;;;;;5033386;28;20450;-67
2022/10/25 09:33:19;;;;;;;1999.90;999.90;;;15.70;99.90;;;;;;5033059;28;20490;-66
2022/10/25 09:35:54;;;;;;;1999.90;999.90;;;15.60;99.90;;;;;;5033463;28;20801;-67
2022/10/25 09:38:25;;;;;;;1999.90;999.90;;;15.60;99.90;;;;;;5032229;28;20426;-66
2022/10/25 09:41:07;;;;;;;1999.90;999.90;;;15.60;99.90;;;;;;5032773;28;20411;-65
2022/10/25 09:43:38;;;;;;;1999.90;999.90;;;15.70;99.90;;;;;;5035921;28;20430;-66
2022/10/25 09:46:11;;;;;;;1999.90;999.90;;;15.70;99.90;;;;;;5070841;28;20448;-66
2022/10/25 09:49:00;;;;;;;1999.90;999.90;;;15.70;99.90;;;;;;5071803;28;20911;-67
2022/10/25 09:51:33;;;;;;;1999.90;999.90;;;15.80;99.90;;;;;;5053895;28;20457;-65
2022/10/25 09:54:03;;;;;;;1999.90;999.90;;;16.00;99.90;;;;;;5068004;28;20445;-66
2022/10/25 09:56:29;;;;;;;1999.90;999.90;;;16.10;99.90;;;;;;5067015;28;20455;-66
2022/10/25 09:58:56;;;;;;;1999.90;999.90;;;16.20;99.90;;;;;;5071550;28;20453;-66
2022/10/25 10:01:25;;;;;;;1999.90;999.90;;;16.30;99.90;;;;;;5072001;28;20183;-66
2022/10/25 10:03:52;;;;;;;1999.90;999.90;;;16.30;99.90;;;;;;5063607;28;20488;-66
2022/10/25 10:06:32;;;;;;;1999.90;999.90;;;16.40;99.90;;;;;;5072113;28;20419;-66
2022/10/25 10:09:06;;;;;;;1999.90;999.90;;;16.40;99.90;;;;;;5071447;28;20906;-67
2022/10/25 10:11:33;;;;;;;1999.90;999.90;;;16.50;99.90;;;;;;5071732;28;20397;-67
2022/10/25 10:14:09;;;;;;;1999.90;999.90;;;16.60;99.90;;;;;;5071773;28;20401;-67
2022/10/25 10:16:41;;;;;;;1999.90;999.90;;;16.70;99.90;;;;;;5071831;28;20475;-67
2022/10/25 10:19:17;;;;;;;1999.90;999.90;;;16.80;99.90;;;;;;5071679;28;20444;-67
2022/10/25 10:21:47;;;;;;;1999.90;999.90;;;16.90;99.90;;;;;;5063809;28;20448;-67
2022/10/25 10:24:30;;;;;;;1999.90;999.90;;;16.90;99.90;;;;;;5071968;28;20410;-67
2022/10/25 10:27:12;;;;;;;1999.90;999.90;;;17.00;99.90;;;;;;5071393;28;20462;-66
2022/10/25 10:29:49;;;;;;;1999.90;999.90;;;16.90;99.90;;;;;;5071357;28;20523;-67
2022/10/25 10:32:30;;;;;;;1999.90;999.90;;;16.90;99.90;;;;;;5070364;28;20393;-66
2022/10/25 10:34:57;;;;;;;1999.90;999.90;;;16.80;99.90;;;;;;5071863;28;20390;-66
2022/10/25 10:37:25;;;;;;;1999.90;999.90;;;16.70;99.90;;;;;;5070724;28;20459;-66
2022/10/25 10:39:58;;;;;;;1999.90;999.90;;;16.70;99.90;;;;;;5071427;28;20442;-66
2022/10/25 10:42:35;;;;;;;1999.90;999.90;;;16.70;99.90;;;;;;5071756;28;20499;-66
2022/10/25 10:45:07;;;;;;;1999.90;999.90;;;16.80;99.90;;;;;;5071708;28;20473;-67
2022/10/25 10:47:40;;;;;;;1999.90;999.90;;;16.90;99.90;;;;;;5070838;28;20458;-67
2022/10/25 10:50:21;;;;;;;1999.90;999.90;;;17.00;99.90;;;;;;5071652;28;20550;-67
2022/10/25 10:52:52;;;;;;;1999.90;999.90;;;17.10;99.90;;;;;;5071386;28;20404;-66
2022/10/25 10:55:24;;;;;;;1999.90;999.90;;;17.20;99.90;;;;;;5063544;28;20398;-66
2022/10/25 10:57:52;;;;;;;1999.90;999.90;;;17.40;99.90;;;;;;5071354;28;20445;-67
2022/10/25 11:00:23;;;;;;;1999.90;999.90;;;17.50;99.90;;;;;;5071725;28;20825;-66
2022/10/25 11:02:49;;;;;;;1999.90;999.90;;;17.60;99.90;;;;;;5070802;28;20894;-66
2022/10/25 11:05:36;;;;;;;1999.90;999.90;;;17.70;99.90;;;;;;5069634;28;20474;-67
2022/10/25 11:08:08;;;;;;;1999.90;999.90;;;17.80;99.90;;;;;;5068065;28;20479;-67
2022/10/25 11:10:37;;;;;;;1999.90;999.90;;;17.90;99.90;;;;;;5069944;28;20769;-67
2022/10/25 11:13:15;;;;;;;1999.90;999.90;;;17.90;99.90;;;;;;5069678;28;20411;-67
2022/10/25 11:15:55;;;;;;;1999.90;999.90;;;17.90;99.90;;;;;;5070934;28;20397;-66
2022/10/25 11:18:37;;;;;;;1999.90;999.90;;;18.00;99.90;;;;;;5070874;28;20430;-67
2022/10/25 11:21:19;;;;;;;1999.90;999.90;;;18.00;99.90;;;;;;5071470;28;20404;-67
2022/10/25 11:23:58;;;;;;;1999.90;999.90;;;18.00;99.90;;;;;;5071713;28;20886;-67
2022/10/25 11:26:46;;;;;;;1999.90;999.90;;;18.00;99.90;;;;;;5071023;28;20538;-66
2022/10/25 11:29:53;;;;;;;1999.90;999.90;;;18.00;99.90;;;;;;5070880;28;20433;-66
2022/10/25 11:32:41;;;;;;;1999.90;999.90;;;18.00;99.90;;;;;;5071430;28;20914;-66
2022/10/25 11:35:15;;;;;;;1999.90;999.90;;;18.10;99.90;;;;;;5071554;28;20401;-66
2022/10/25 11:37:50;;;;;;;1999.90;999.90;;;18.10;99.90;;;;;;5070628;28;20395;-66
2022/10/25 11:40:22;;;;;;;1999.90;999.90;;;18.00;99.90;;;;;;5071116;28;20417;-67
2022/10/25 11:43:15;;;;;;;1999.90;999.90;;;17.90;99.90;;;;;;5071111;28;20388;-67
2022/10/25 11:45:47;;;;;;;1999.90;999.90;;;17.80;99.90;;;;;;5071014;28;20430;-67
2022/10/25 11:48:15;;;;;;;1999.90;999.90;;;17.80;99.90;;;;;;5071840;28;20541;-67
2022/10/25 11:51:05;;;;;;;1999.90;999.90;;;17.80;99.90;;;;;;5074435;28;20398;-67
2022/10/25 11:53:36;;;;;;;1999.90;999.90;;;17.80;99.90;;;;;;5074539;28;20391;-67
2022/10/25 11:56:27;;;;;;;1999.90;999.90;;;17.80;99.90;;;;;;5074300;28;20398;-66
2022/10/25 11:59:08;;;;;;;1999.90;999.90;;;17.80;99.90;;;;;;5073813;28;20470;-66
2022/10/25 12:01:40;;;;;;;1999.90;999.90;;;17.70;99.90;;;;;;5074793;28;20440;-67
2022/10/25 12:04:56;;;;;;;1999.90;999.90;;;17.70;99.90;;;;;;5057941;28;20449;-67
2022/10/25 12:07:49;;;;;;;1999.90;999.90;;;17.70;99.90;;;;;;4991362;28;20554;-66
2022/10/25 12:10:20;;;;;;;1999.90;999.90;;;17.80;99.90;;;;;;5071797;28;20485;-66
2022/10/25 12:12:57;;;;;;;1999.90;999.90;;;17.80;99.90;;;;;;5074735;28;20416;-67
2022/10/25 12:15:37;;;;;;;1999.90;999.90;;;17.80;99.90;;;;;;5074485;28;20440;-67
2022/10/25 12:18:05;;;;;;;1999.90;999.90;;;17.90;99.90;;;;;;5073765;28;20408;-67